Adams Gardens, Texas
Current Conditions -  °F | °C
As of 5:52 PM on Thursday 27 Nov 2014 (Local Time) from KHRL Reporting Station
Clear Clear  
Wind Chill: 64°   Ceiling: Unl
Heat Index: 64°   Visibility: 10mi
Dew Point: 58°   Wind: 9mph
Humidity: 80%   Direction: 80°E
Pressure: 30.36"   Gusts: NA
Location:  26.2089°N, 97.6849°W
Report Text: KHRL 272352Z 08008KT 10SM CLR 18/14 A3036 RMK AO2 SLP279 T01780144 10244 20178 53008 $
Loading
Personal Weather Stations






























Interactive Weather Map New forecast layout! Learn more

10-Day Weather Forecast

Advertisements
Track Severe Weather on mobile